< < Back
Terminal Aerodrome Forecast


Current Version              Previous Versions:   1  2  3  4  5  6  7  8  9  

Terminal Aerodrome Forecast

850
FTUS42 KGSP 190900 AAC
TAFAVL
TAF AMD
KAVL 190902Z 1909/2006 00000KT 3SM BR SCT003 BKN030
      TEMPO 1909/1913 1SM BR OVC002
     FM191300 15003KT P6SM BKN045
     FM192000 15008KT P6SM BKN060
     FM200300 12003KT P6SM BKN060=

Latest METAR

174
SAUS70 KWBC 191300 RRM
MTRAVL
METAR KAVL 191254Z 00000KT 2SM BR FEW015 OVC046 16/16 A3018 RMK AO2
SLP202 T01610156


USA.gov is the U.S. government's official web portal to all federal, state and local government web resources and services.